Other Surface Observations
Issued by NWS Great Falls, MT

Home | Current Version | Previous Version | Text Only | Print | Product List | Glossary On
Versions: 1 2 3 4 5 6 7 8 9 10 11 12 13 14 15 16 17 18 19 20 21 22 23 24 25 26 27 28 29 30 31 32 33 34 35 36 37 38 39 40 41 42 43 44 45 46 47 48 49 50
000
SXUS55 KTFX 310940
OSOTFX
AREA AWOS OBSERVATIONS
NATIONAL WEATHER SERVICE GREAT FALLS MT
0335 AM MDT MON AUG 31 2015

METAR KPWD 310930Z AUTO 30016G20KT 8SM 14/12 A2979 RMK PLENTYWOOD
METAR KPO1 310930Z AUTO 30007KT 10SM 15/11 A2977 RMK POPLAR
METAR K1S3 310930Z AUTO 25004KT 8SM 16/09 A2989 RMK FORSYTH
METAR KS71 310930Z AUTO 23012G16KT 10SM 13/03 A2983 RMK CHINOOK
METAR K79S 310930Z AUTO 21011G17KT 10SM 14/00 A2989 RMK FORT BENTON
METAR K38S 310930Z AUTO 00000KT 06/03 A3011 RMK DEER LODGE
METAR K3U3 310930Z AUTO 21007KT 10/01 A3009 RMK ANACONDA
METAR K6S5 310930Z AUTO 16009KT 10SM 10/05 A3007 RMK HAMILTON
METAR KS59 310930Z AUTO 00000KT 1/4SM 09/09 A2999 RMK LIBBY
METAR K88M 310930Z AUTO 14009KT 10SM 12/07 A2997 RMK EUREKA



USA.gov is the U.S. government's official web portal to all federal, state and local government web resources and services.